Time;durP1;ratioP1;P1;durP2;ratioP2;P2;SDS_P1;SDS_P2;PMS_P1;PMS_P2;Temp;Humidity;BMP_temperature;BMP_pressure;BME280_temperature;BME280_humidity;BME280_pressure;Samples;Min_cycle;Max_cycle;Signal;HPM_P1;HPM_P2
2022/07/08 00:02:14;;;;;;;3.67;3.33;;;;;;;;;;5033370;28;20426;-66
2022/07/08 00:04:39;;;;;;;3.60;3.30;;;;;;;;;;5033574;28;20073;-66
2022/07/08 00:07:05;;;;;;;3.80;3.33;;;;;;;;;;5015554;28;20064;-66
2022/07/08 00:09:31;;;;;;;3.67;3.33;;;;;;;;;;5033262;28;20037;-67
2022/07/08 00:11:56;;;;;;;3.53;3.25;;;;;;;;;;5015550;28;20092;-67
2022/07/08 00:14:23;;;;;;;4.70;3.30;;;;;;;;;;5016251;28;20036;-67
2022/07/08 00:16:48;;;;;;;3.47;3.08;;;;;;;;;;5033297;28;20039;-67
2022/07/08 00:19:14;;;;;;;4.00;3.10;;;;;;;;;;5033116;28;20108;-65
2022/07/08 00:21:40;;;;;;;5.22;3.28;;;;;;;;;;5033227;28;20032;-66
2022/07/08 00:24:06;;;;;;;3.35;3.15;;;;;;;;;;5033451;28;20017;-66
2022/07/08 00:26:31;;;;;;;4.18;3.00;;;;;;;;;;5035782;28;20025;-66
2022/07/08 00:28:57;;;;;;;3.28;3.00;;;;;;;;;;5036852;28;20025;-66
2022/07/08 00:31:22;;;;;;;3.58;3.38;;;;;;;;;;5010980;28;20033;-67
2022/07/08 00:33:48;;;;;;;3.33;3.08;;;;;;;;;;5037320;28;20025;-66
2022/07/08 00:36:13;;;;;;;3.00;2.63;;;;;;;;;;5037253;28;20182;-65
2022/07/08 00:38:39;;;;;;;3.85;3.22;;;;;;;;;;5018855;28;20527;-65
2022/07/08 00:41:04;;;;;;;2.60;2.33;;;;;;;;;;5036794;28;20059;-65
2022/07/08 00:43:41;;;;;;;3.30;3.00;;;;;;;;;;5037073;28;20090;-65
2022/07/08 00:46:07;;;;;;;3.47;3.10;;;;;;;;;;5036710;28;20021;-65
2022/07/08 00:48:33;;;;;;;3.20;2.90;;;;;;;;;;5036796;28;20079;-65
2022/07/08 00:51:00;;;;;;;3.20;3.00;;;;;;;;;;5036662;28;20364;-65
2022/07/08 00:53:26;;;;;;;2.88;2.67;;;;;;;;;;5036707;28;20424;-66
2022/07/08 00:55:51;;;;;;;3.05;2.85;;;;;;;;;;5036467;28;20029;-66
2022/07/08 00:58:19;;;;;;;3.20;2.95;;;;;;;;;;5045460;23;20105;-71
2022/07/08 01:00:44;;;;;;;3.40;3.20;;;;;;;;;;5036096;28;20021;-71
2022/07/08 01:03:10;;;;;;;3.28;2.95;;;;;;;;;;5036114;28;20353;-71
2022/07/08 01:05:35;;;;;;;3.22;2.92;;;;;;;;;;5035732;28;20033;-71
2022/07/08 01:08:02;;;;;;;3.20;3.00;;;;;;;;;;5036495;28;20432;-70
2022/07/08 01:10:29;;;;;;;3.22;2.97;;;;;;;;;;5036763;28;20025;-71
2022/07/08 01:12:55;;;;;;;3.47;3.08;;;;;;;;;;5036241;28;20120;-71
2022/07/08 01:15:22;;;;;;;3.08;2.72;;;;;;;;;;5035477;28;20503;-71
2022/07/08 01:17:48;;;;;;;3.22;3.03;;;;;;;;;;5035782;28;20033;-70
2022/07/08 01:20:14;;;;;;;3.15;2.95;;;;;;;;;;5035604;28;20055;-70
2022/07/08 01:22:39;;;;;;;4.43;2.95;;;;;;;;;;5035516;28;20018;-70
2022/07/08 01:25:05;;;;;;;3.97;2.97;;;;;;;;;;5036123;28;20367;-70
2022/07/08 01:27:31;;;;;;;3.03;2.90;;;;;;;;;;5036194;28;20486;-70
2022/07/08 01:29:57;;;;;;;3.03;2.83;;;;;;;;;;5017836;28;20509;-71
2022/07/08 01:32:22;;;;;;;3.50;3.28;;;;;;;;;;5035585;28;20430;-71
2022/07/08 01:34:47;;;;;;;3.53;3.20;;;;;;;;;;5036168;28;20048;-70
2022/07/08 01:37:13;;;;;;;3.70;3.30;;;;;;;;;;5034920;28;20403;-71
2022/07/08 01:39:38;;;;;;;3.28;3.05;;;;;;;;;;5035581;28;20132;-71
2022/07/08 01:42:07;;;;;;;4.03;3.13;;;;;;;;;;5035373;28;20014;-71
2022/07/08 01:44:32;;;;;;;3.47;3.22;;;;;;;;;;5017902;28;20037;-71
2022/07/08 01:46:58;;;;;;;3.47;3.17;;;;;;;;;;5017445;28;20025;-70
2022/07/08 01:49:23;;;;;;;3.67;3.10;;;;;;;;;;5035435;28;20033;-71
2022/07/08 01:51:48;;;;;;;3.03;2.83;;;;;;;;;;5035284;28;20060;-71
2022/07/08 01:54:14;;;;;;;3.47;3.17;;;;;;;;;;5035645;28;20036;-71
2022/07/08 01:56:41;;;;;;;2.92;2.72;;;;;;;;;;5034973;28;20063;-71
2022/07/08 01:59:07;;;;;;;3.40;2.80;;;;;;;;;;5034973;28;20073;-71
2022/07/08 02:01:32;;;;;;;2.92;2.72;;;;;;;;;;5035173;28;20068;-71
2022/07/08 02:04:01;;;;;;;2.92;2.72;;;;;;;;;;5035118;28;20030;-71
2022/07/08 02:06:26;;;;;;;2.75;2.55;;;;;;;;;;5017371;28;20025;-71
2022/07/08 02:08:53;;;;;;;3.40;3.15;;;;;;;;;;5035117;28;20034;-71
2022/07/08 02:14:02;;;;;;;3.38;3.13;;;;;;;;;;5035366;28;20022;-71
2022/07/08 02:16:27;;;;;;;2.97;2.78;;;;;;;;;;5035060;28;20486;-71
2022/07/08 02:18:53;;;;;;;2.85;2.65;;;;;;;;;;5034664;28;20079;-71
2022/07/08 02:21:18;;;;;;;3.15;2.78;;;;;;;;;;5034888;28;20028;-71
2022/07/08 02:23:44;;;;;;;2.92;2.78;;;;;;;;;;5016927;28;20021;-71
2022/07/08 02:26:09;;;;;;;2.85;2.65;;;;;;;;;;5034589;28;20021;-71
2022/07/08 02:28:35;;;;;;;2.85;2.60;;;;;;;;;;5034583;28;20033;-71
2022/07/08 02:31:01;;;;;;;2.90;2.63;;;;;;;;;;5034687;28;20097;-71
2022/07/08 02:33:26;;;;;;;4.07;2.88;;;;;;;;;;5017152;28;20056;-71
2022/07/08 02:35:52;;;;;;;3.40;2.70;;;;;;;;;;5035034;28;20444;-70
2022/07/08 02:38:17;;;;;;;4.93;2.80;;;;;;;;;;5016960;28;20040;-71
2022/07/08 02:40:43;;;;;;;2.53;2.35;;;;;;;;;;5034546;28;20437;-71
2022/07/08 02:43:10;;;;;;;2.53;2.33;;;;;;;;;;5034166;28;20085;-71
2022/07/08 02:45:35;;;;;;;2.67;2.50;;;;;;;;;;5034500;28;20076;-71
2022/07/08 02:48:01;;;;;;;4.95;2.50;;;;;;;;;;5034568;28;20025;-71
2022/07/08 02:50:26;;;;;;;2.80;2.13;;;;;;;;;;5034692;28;20025;-71
2022/07/08 02:52:52;;;;;;;3.65;2.58;;;;;;;;;;5034336;28;20083;-72
2022/07/08 02:55:17;;;;;;;3.42;2.38;;;;;;;;;;5034426;28;20471;-71
2022/07/08 02:57:43;;;;;;;5.63;2.70;;;;;;;;;;5016304;28;20176;-71
2022/07/08 03:00:09;;;;;;;2.88;2.45;;;;;;;;;;5034122;28;20100;-71
2022/07/08 03:02:34;;;;;;;2.80;2.60;;;;;;;;;;5033894;28;20034;-72
2022/07/08 03:05:00;;;;;;;2.90;2.70;;;;;;;;;;5034644;28;20029;-72
2022/07/08 03:07:26;;;;;;;2.50;2.28;;;;;;;;;;5033963;28;20037;-71
2022/07/08 03:09:51;;;;;;;3.15;2.67;;;;;;;;;;5033988;28;20027;-71
2022/07/08 03:12:16;;;;;;;2.65;2.33;;;;;;;;;;5033792;28;20091;-71
2022/07/08 03:14:42;;;;;;;2.70;2.50;;;;;;;;;;5034137;28;20079;-71
2022/07/08 03:17:08;;;;;;;2.50;2.30;;;;;;;;;;5033980;28;20029;-71
2022/07/08 03:19:33;;;;;;;4.43;2.55;;;;;;;;;;5034391;28;20017;-71
2022/07/08 03:21:59;;;;;;;2.42;2.25;;;;;;;;;;5033828;28;20379;-71
2022/07/08 03:24:24;;;;;;;2.58;2.05;;;;;;;;;;5033758;28;20009;-71
2022/07/08 03:26:50;;;;;;;2.45;2.28;;;;;;;;;;5033934;28;20029;-71
2022/07/08 03:29:15;;;;;;;3.67;2.40;;;;;;;;;;5033625;28;20030;-71
2022/07/08 03:31:41;;;;;;;2.38;2.28;;;;;;;;;;5033855;28;20025;-71
2022/07/08 03:34:06;;;;;;;2.35;2.17;;;;;;;;;;5033966;28;20089;-72
2022/07/08 03:36:32;;;;;;;2.72;2.53;;;;;;;;;;5033696;28;20096;-71
2022/07/08 03:38:57;;;;;;;3.55;2.75;;;;;;;;;;5033553;28;20022;-71
2022/07/08 03:41:23;;;;;;;3.38;2.83;;;;;;;;;;5033741;28;20022;-71
2022/07/08 03:43:52;;;;;;;3.47;2.55;;;;;;;;;;5015810;28;20041;-70
2022/07/08 03:46:18;;;;;;;2.92;2.72;;;;;;;;;;5044867;23;20421;-70
2022/07/08 03:48:43;;;;;;;2.90;2.67;;;;;;;;;;5031447;28;20037;-67
2022/07/08 03:51:08;;;;;;;3.25;2.90;;;;;;;;;;5033039;28;20010;-70
2022/07/08 03:53:34;;;;;;;3.60;3.03;;;;;;;;;;5015134;28;20041;-71
2022/07/08 03:55:59;;;;;;;3.75;3.05;;;;;;;;;;5032631;28;20108;-71
2022/07/08 03:58:25;;;;;;;4.22;3.13;;;;;;;;;;5032264;28;20073;-71
2022/07/08 04:00:50;;;;;;;3.22;2.95;;;;;;;;;;5016800;28;20334;-71
2022/07/08 04:03:16;;;;;;;3.17;2.80;;;;;;;;;;5036963;28;20021;-71
2022/07/08 04:05:41;;;;;;;3.33;2.92;;;;;;;;;;5019305;28;20029;-70
2022/07/08 04:08:07;;;;;;;3.13;2.85;;;;;;;;;;5036381;28;20109;-70
2022/07/08 04:10:32;;;;;;;2.83;2.50;;;;;;;;;;5036647;28;20064;-71
2022/07/08 04:12:58;;;;;;;3.45;2.95;;;;;;;;;;5036842;28;20387;-71
2022/07/08 04:15:23;;;;;;;3.72;2.92;;;;;;;;;;5036899;28;20079;-71
2022/07/08 04:17:48;;;;;;;2.83;2.63;;;;;;;;;;5036557;28;20037;-72
2022/07/08 04:20:14;;;;;;;2.72;2.40;;;;;;;;;;5036807;28;20025;-72
2022/07/08 04:22:39;;;;;;;3.15;2.83;;;;;;;;;;5036491;28;20032;-71
2022/07/08 04:25:06;;;;;;;4.55;3.65;;;;;;;;;;5036200;28;20022;-69
2022/07/08 04:27:31;;;;;;;3.25;3.05;;;;;;;;;;5036335;28;20487;-70
2022/07/08 04:29:56;;;;;;;4.82;3.08;;;;;;;;;;5018829;28;20025;-70
2022/07/08 04:32:22;;;;;;;3.72;3.42;;;;;;;;;;5036429;28;20042;-70
2022/07/08 04:34:47;;;;;;;4.82;3.35;;;;;;;;;;5018751;28;20044;-70
2022/07/08 04:37:13;;;;;;;3.83;3.53;;;;;;;;;;5018580;28;20416;-70
2022/07/08 04:39:38;;;;;;;5.93;4.18;;;;;;;;;;5018062;28;20036;-70
2022/07/08 04:42:04;;;;;;;4.28;3.83;;;;;;;;;;5035369;28;20032;-70
2022/07/08 04:44:29;;;;;;;7.43;3.72;;;;;;;;;;5034781;28;20045;-71
2022/07/08 04:46:55;;;;;;;3.88;3.50;;;;;;;;;;5014872;28;20068;-71
2022/07/08 04:49:21;;;;;;;3.90;3.40;;;;;;;;;;5015644;28;20076;-71
2022/07/08 04:51:46;;;;;;;3.88;3.58;;;;;;;;;;5016426;28;20022;-71
2022/07/08 04:54:12;;;;;;;4.00;3.47;;;;;;;;;;5016292;28;20046;-71
2022/07/08 04:56:37;;;;;;;4.05;3.67;;;;;;;;;;4998964;28;20025;-71
2022/07/08 04:59:02;;;;;;;4.57;3.70;;;;;;;;;;5015664;28;20068;-71
2022/07/08 05:01:28;;;;;;;3.90;3.58;;;;;;;;;;4997920;28;20460;-72
2022/07/08 05:03:54;;;;;;;4.32;3.25;;;;;;;;;;5015372;28;20053;-72
2022/07/08 05:06:19;;;;;;;3.38;3.08;;;;;;;;;;5016080;28;20021;-71
2022/07/08 05:08:45;;;;;;;3.95;3.50;;;;;;;;;;5016065;28;20073;-71
2022/07/08 05:11:10;;;;;;;3.00;2.80;;;;;;;;;;5015846;28;20018;-71
2022/07/08 05:13:35;;;;;;;3.05;2.85;;;;;;;;;;5016094;28;20025;-71
2022/07/08 05:16:01;;;;;;;5.32;3.30;;;;;;;;;;5015898;28;20029;-71
2022/07/08 05:18:26;;;;;;;3.75;3.20;;;;;;;;;;5015840;28;20033;-71
2022/07/08 05:20:52;;;;;;;3.08;2.75;;;;;;;;;;4997463;28;20026;-71
2022/07/08 05:23:17;;;;;;;5.88;3.50;;;;;;;;;;5013570;28;20030;-71
2022/07/08 05:25:42;;;;;;;4.25;3.85;;;;;;;;;;5013000;28;20033;-71
2022/07/08 05:28:08;;;;;;;4.32;3.92;;;;;;;;;;5013350;28;20030;-71
2022/07/08 05:30:33;;;;;;;4.07;3.65;;;;;;;;;;5013677;28;20464;-72
2022/07/08 05:32:59;;;;;;;5.05;3.75;;;;;;;;;;5013531;28;20125;-71
2022/07/08 05:35:24;;;;;;;4.10;3.80;;;;;;;;;;5013621;28;20025;-71
2022/07/08 05:37:49;;;;;;;3.88;3.58;;;;;;;;;;5014067;28;20053;-71
2022/07/08 05:40:15;;;;;;;5.90;4.10;;;;;;;;;;5014639;28;20489;-71
2022/07/08 05:42:42;;;;;;;4.03;3.58;;;;;;;;;;5013051;28;20041;-71
2022/07/08 05:45:08;;;;;;;4.57;4.00;;;;;;;;;;4995053;28;20018;-71
2022/07/08 05:47:34;;;;;;;6.20;4.38;;;;;;;;;;4995394;28;20056;-71
2022/07/08 05:49:59;;;;;;;4.85;4.28;;;;;;;;;;5013317;28;20464;-71
2022/07/08 05:52:26;;;;;;;5.22;3.92;;;;;;;;;;5013841;28;20033;-71
2022/07/08 05:54:51;;;;;;;5.28;4.68;;;;;;;;;;5013754;28;20026;-71
2022/07/08 05:57:16;;;;;;;4.80;3.85;;;;;;;;;;5014065;28;20113;-71
2022/07/08 05:59:42;;;;;;;7.10;4.07;;;;;;;;;;5014243;28;20453;-71
2022/07/08 06:02:08;;;;;;;7.22;4.40;;;;;;;;;;5014329;28;20018;-72
2022/07/08 06:04:34;;;;;;;5.10;4.50;;;;;;;;;;5014200;28;20029;-72
2022/07/08 06:06:59;;;;;;;5.03;4.10;;;;;;;;;;5014280;28;20017;-71
2022/07/08 06:09:24;;;;;;;4.43;3.58;;;;;;;;;;4996617;28;20029;-71
2022/07/08 06:11:50;;;;;;;5.43;3.97;;;;;;;;;;5014207;28;20380;-71
2022/07/08 06:14:15;;;;;;;4.47;3.80;;;;;;;;;;5014019;28;20029;-71
2022/07/08 06:16:41;;;;;;;4.03;3.65;;;;;;;;;;5014071;28;20480;-71
2022/07/08 06:19:06;;;;;;;4.57;4.07;;;;;;;;;;5013855;28;20457;-71
2022/07/08 06:21:32;;;;;;;4.07;3.70;;;;;;;;;;5013960;28;20030;-71
2022/07/08 06:23:58;;;;;;;4.10;3.80;;;;;;;;;;5013375;28;20056;-71
2022/07/08 06:26:24;;;;;;;4.10;3.70;;;;;;;;;;5013843;28;20022;-71
2022/07/08 06:28:50;;;;;;;4.32;3.92;;;;;;;;;;5013833;28;20038;-71
2022/07/08 06:31:15;;;;;;;3.75;3.00;;;;;;;;;;5015122;28;20022;-71
2022/07/08 06:33:40;;;;;;;5.00;3.75;;;;;;;;;;5014762;28;20104;-65
2022/07/08 06:36:06;;;;;;;4.65;4.25;;;;;;;;;;5015219;28;20057;-71
2022/07/08 06:38:32;;;;;;;4.47;3.90;;;;;;;;;;5015174;28;20538;-71
2022/07/08 06:40:57;;;;;;;4.05;3.75;;;;;;;;;;5014673;28;20018;-71
2022/07/08 06:43:23;;;;;;;3.95;3.60;;;;;;;;;;5015204;28;20491;-71
2022/07/08 06:45:50;;;;;;;4.32;3.92;;;;;;;;;;4996919;28;20464;-71
2022/07/08 06:48:15;;;;;;;3.63;3.33;;;;;;;;;;4996988;28;20053;-71
2022/07/08 06:50:41;;;;;;;4.28;3.88;;;;;;;;;;5013527;28;20026;-71
2022/07/08 06:53:06;;;;;;;4.97;3.72;;;;;;;;;;5014773;28;20424;-71
2022/07/08 06:55:31;;;;;;;3.92;3.42;;;;;;;;;;4996823;28;20030;-71
2022/07/08 06:57:57;;;;;;;4.15;3.85;;;;;;;;;;4996711;28;20180;-71
2022/07/08 07:00:23;;;;;;;4.30;3.58;;;;;;;;;;5014655;28;20045;-70
2022/07/08 07:02:48;;;;;;;3.83;3.53;;;;;;;;;;5014605;28;20025;-71
2022/07/08 07:05:14;;;;;;;3.58;3.28;;;;;;;;;;5014283;28;20040;-71
2022/07/08 07:07:39;;;;;;;3.17;2.97;;;;;;;;;;5014517;28;20026;-71
2022/07/08 07:10:05;;;;;;;3.58;3.28;;;;;;;;;;4996547;28;20026;-71
2022/07/08 07:12:31;;;;;;;3.38;3.00;;;;;;;;;;4996503;28;20028;-71
2022/07/08 07:14:56;;;;;;;3.35;2.80;;;;;;;;;;4997188;28;20092;-70
2022/07/08 07:17:22;;;;;;;3.47;3.17;;;;;;;;;;5028644;23;20144;-70
2022/07/08 07:19:48;;;;;;;3.28;3.08;;;;;;;;;;5033996;28;20076;-71
2022/07/08 07:22:14;;;;;;;4.50;3.22;;;;;;;;;;5034346;28;20021;-70
2022/07/08 07:24:39;;;;;;;3.72;3.10;;;;;;;;;;5016009;28;20387;-71
2022/07/08 07:27:05;;;;;;;3.65;2.47;;;;;;;;;;5016352;28;20060;-71
2022/07/08 07:29:31;;;;;;;2.33;2.13;;;;;;;;;;5033909;28;20030;-71
2022/07/08 07:31:57;;;;;;;2.92;2.53;;;;;;;;;;5033943;28;20028;-71
2022/07/08 07:34:22;;;;;;;2.75;2.55;;;;;;;;;;5033169;28;20124;-71
2022/07/08 07:36:47;;;;;;;3.67;2.45;;;;;;;;;;5033664;28;20235;-70
2022/07/08 07:39:13;;;;;;;2.00;1.90;;;;;;;;;;5033790;28;20094;-70
2022/07/08 07:41:38;;;;;;;3.00;2.10;;;;;;;;;;5034079;28;20021;-70
2022/07/08 07:44:04;;;;;;;2.30;2.20;;;;;;;;;;5033511;28;20127;-70
2022/07/08 07:46:30;;;;;;;2.13;1.92;;;;;;;;;;5034058;28;20021;-70
2022/07/08 07:48:56;;;;;;;2.28;1.98;;;;;;;;;;5016156;28;20026;-71
2022/07/08 07:51:22;;;;;;;2.40;2.20;;;;;;;;;;5033701;28;20048;-70
2022/07/08 07:53:48;;;;;;;2.28;2.00;;;;;;;;;;5043383;23;20050;-70
2022/07/08 07:56:14;;;;;;;2.20;2.10;;;;;;;;;;5014983;28;20029;-71
2022/07/08 07:58:39;;;;;;;3.35;2.35;;;;;;;;;;5032237;28;20028;-71
2022/07/08 08:01:05;;;;;;;2.28;2.17;;;;;;;;;;5032305;28;20030;-71
2022/07/08 08:03:31;;;;;;;2.83;2.50;;;;;;;;;;5032228;28;20523;-70
2022/07/08 08:05:56;;;;;;;2.70;2.60;;;;;;;;;;5032210;28;20022;-70
2022/07/08 08:08:24;;;;;;;2.60;2.40;;;;;;;;;;5014466;28;20021;-71
2022/07/08 08:10:50;;;;;;;1.75;1.65;;;;;;;;;;5032165;28;20033;-71
2022/07/08 08:13:16;;;;;;;2.10;2.00;;;;;;;;;;5032169;28;20057;-71
2022/07/08 08:15:41;;;;;;;2.17;1.50;;;;;;;;;;5014324;28;20072;-71
2022/07/08 08:18:06;;;;;;;2.22;2.05;;;;;;;;;;5032027;28;20357;-71
2022/07/08 08:20:32;;;;;;;2.85;1.80;;;;;;;;;;5014337;28;20053;-71
2022/07/08 08:22:58;;;;;;;3.40;1.90;;;;;;;;;;5032064;28;20043;-72
2022/07/08 08:25:24;;;;;;;1.92;1.83;;;;;;;;;;5032258;28;20032;-71
2022/07/08 08:27:49;;;;;;;3.67;1.75;;;;;;;;;;5032156;28;20352;-70
2022/07/08 08:30:15;;;;;;;2.35;2.15;;;;;;;;;;5032059;28;20491;-70
2022/07/08 08:32:41;;;;;;;1.67;1.48;;;;;;;;;;5032065;28;20456;-71
2022/07/08 08:35:06;;;;;;;1.35;1.30;;;;;;;;;;5032069;28;20029;-65
2022/07/08 08:37:32;;;;;;;1.83;1.40;;;;;;;;;;5032154;28;20018;-65
2022/07/08 08:40:05;;;;;;;1.40;1.40;;;;;;;;;;5014093;28;20033;-65
2022/07/08 08:42:31;;;;;;;1.58;1.48;;;;;;;;;;5032488;28;20033;-65
2022/07/08 08:44:57;;;;;;;1.25;1.17;;;;;;;;;;5031948;28;20032;-65
2022/07/08 08:47:27;;;;;;;1.90;1.70;;;;;;;;;;5016230;28;20388;-65
2022/07/08 08:49:53;;;;;;;2.65;1.58;;;;;;;;;;5035396;28;20056;-65
2022/07/08 08:52:19;;;;;;;1.73;1.63;;;;;;;;;;5017677;28;20084;-65
2022/07/08 08:54:45;;;;;;;2.40;1.80;;;;;;;;;;5035165;28;20042;-65
2022/07/08 08:57:11;;;;;;;1.63;1.52;;;;;;;;;;5035241;28;20033;-65
2022/07/08 08:59:37;;;;;;;1.52;1.42;;;;;;;;;;5035166;28;20119;-65
2022/07/08 09:02:03;;;;;;;1.55;1.45;;;;;;;;;;5035182;28;20361;-65
2022/07/08 09:04:30;;;;;;;1.55;1.45;;;;;;;;;;5035152;28;20021;-65
2022/07/08 09:06:56;;;;;;;1.58;1.48;;;;;;;;;;5017309;28;20036;-65
2022/07/08 09:09:21;;;;;;;2.03;1.60;;;;;;;;;;5035077;28;20384;-65
2022/07/08 09:11:46;;;;;;;1.75;1.45;;;;;;;;;;5034957;28;20147;-64
2022/07/08 09:14:13;;;;;;;1.67;1.38;;;;;;;;;;5035774;28;20026;-65
2022/07/08 09:16:38;;;;;;;1.42;1.35;;;;;;;;;;5018255;28;20499;-70
2022/07/08 09:19:11;;;;;;;1.67;1.50;;;;;;;;;;5018247;28;20116;-70
2022/07/08 09:21:37;;;;;;;1.38;1.23;;;;;;;;;;5035700;28;20053;-70
2022/07/08 09:24:18;;;;;;;1.42;1.33;;;;;;;;;;5035318;28;20435;-70
2022/07/08 09:26:44;;;;;;;1.75;1.30;;;;;;;;;;5035368;28;20033;-70
2022/07/08 09:29:09;;;;;;;2.42;1.63;;;;;;;;;;5017774;28;20032;-70
2022/07/08 09:31:35;;;;;;;1.80;1.23;;;;;;;;;;5035398;28;20057;-70
2022/07/08 09:34:05;;;;;;;1.92;1.50;;;;;;;;;;5035321;28;20440;-71
2022/07/08 09:36:43;;;;;;;1.30;1.30;;;;;;;;;;5035225;28;20029;-71
2022/07/08 09:39:15;;;;;;;2.15;1.50;;;;;;;;;;5016803;28;20025;-71
2022/07/08 09:41:47;;;;;;;1.75;1.30;;;;;;;;;;5016589;28;20032;-71
2022/07/08 09:44:15;;;;;;;1.58;1.40;;;;;;;;;;5034395;28;20200;-71
2022/07/08 09:46:41;;;;;;;1.50;1.40;;;;;;;;;;5034341;28;20076;-71
2022/07/08 09:49:07;;;;;;;3.78;2.72;;;;;;;;;;5034301;28;20495;-71
2022/07/08 09:51:35;;;;;;;1.95;1.75;;;;;;;;;;5034312;28;20108;-71
2022/07/08 09:54:08;;;;;;;1.30;1.20;;;;;;;;;;5034211;28;20065;-71
2022/07/08 09:56:33;;;;;;;1.48;1.48;;;;;;;;;;5034175;28;20060;-71
2022/07/08 09:58:59;;;;;;;1.10;1.10;;;;;;;;;;5033084;28;20037;-71
2022/07/08 10:01:24;;;;;;;1.30;1.30;;;;;;;;;;5034118;28;20033;-71
2022/07/08 10:03:50;;;;;;;1.17;1.08;;;;;;;;;;5033968;28;20021;-71
2022/07/08 10:06:16;;;;;;;1.30;1.30;;;;;;;;;;5033970;28;20037;-71
2022/07/08 10:08:41;;;;;;;1.20;1.20;;;;;;;;;;5033932;28;20021;-71
2022/07/08 10:11:08;;;;;;;2.20;1.10;;;;;;;;;;5033868;28;20033;-70
2022/07/08 10:13:35;;;;;;;0.90;0.90;;;;;;;;;;5033894;28;20014;-71
2022/07/08 10:16:03;;;;;;;0.90;0.90;;;;;;;;;;5034382;28;20030;-71
2022/07/08 10:18:36;;;;;;;1.85;1.40;;;;;;;;;;5016802;28;20025;-71
2022/07/08 10:21:04;;;;;;;1.10;1.10;;;;;;;;;;5016784;28;20384;-71
2022/07/08 10:23:36;;;;;;;1.00;0.95;;;;;;;;;;5034350;28;20018;-71
2022/07/08 10:26:02;;;;;;;1.20;1.20;;;;;;;;;;5033878;28;20072;-71
2022/07/08 10:28:34;;;;;;;1.10;1.10;;;;;;;;;;5033823;28;20470;-70
2022/07/08 10:30:59;;;;;;;1.08;1.08;;;;;;;;;;5016066;28;20065;-71
2022/07/08 10:33:26;;;;;;;1.20;1.10;;;;;;;;;;5033891;28;20057;-70
2022/07/08 10:36:02;;;;;;;2.35;1.20;;;;;;;;;;5033999;28;20033;-70
2022/07/08 10:38:28;;;;;;;1.10;1.10;;;;;;;;;;5033652;28;20387;-65
2022/07/08 10:40:54;;;;;;;1.08;1.08;;;;;;;;;;5033446;28;20009;-71
2022/07/08 10:43:19;;;;;;;1.27;1.20;;;;;;;;;;5033406;28;20113;-71
2022/07/08 10:46:05;;;;;;;3.85;1.30;;;;;;;;;;5033436;28;20029;-65
2022/07/08 10:48:39;;;;;;;2.67;1.55;;;;;;;;;;5033328;28;20029;-70
2022/07/08 10:51:05;;;;;;;10.90;1.80;;;;;;;;;;5033169;28;20069;-71
2022/07/08 10:53:51;;;;;;;13.68;2.50;;;;;;;;;;5033124;28;20045;-72
2022/07/08 10:56:35;;;;;;;1.65;1.63;;;;;;;;;;5033143;28;20525;-71
2022/07/08 10:59:19;;;;;;;1.70;1.60;;;;;;;;;;5032952;28;20069;-72
2022/07/08 11:01:51;;;;;;;1.70;1.60;;;;;;;;;;5033014;28;20057;-71
2022/07/08 11:04:29;;;;;;;1.63;1.55;;;;;;;;;;5033206;28;20029;-71
2022/07/08 11:06:56;;;;;;;1.60;1.50;;;;;;;;;;5015135;28;20026;-71
2022/07/08 11:09:23;;;;;;;2.25;1.50;;;;;;;;;;5032956;28;20028;-65
2022/07/08 11:11:49;;;;;;;1.63;1.52;;;;;;;;;;5033480;28;20468;-72
2022/07/08 11:14:14;;;;;;;3.75;1.55;;;;;;;;;;5033318;28;20025;-73
2022/07/08 11:16:40;;;;;;;1.48;1.42;;;;;;;;;;5033133;28;20486;-72
2022/07/08 11:19:06;;;;;;;1.90;1.40;;;;;;;;;;5033194;28;20017;-72
2022/07/08 11:21:32;;;;;;;1.50;1.50;;;;;;;;;;5033017;28;20072;-72
2022/07/08 11:23:57;;;;;;;1.00;1.00;;;;;;;;;;5033146;28;20026;-65
2022/07/08 11:26:23;;;;;;;1.25;1.25;;;;;;;;;;5015368;28;20463;-65
2022/07/08 11:28:48;;;;;;;1.45;1.20;;;;;;;;;;5032939;28;20018;-65
2022/07/08 11:31:34;;;;;;;1.42;1.35;;;;;;;;;;5032921;28;20049;-65
2022/07/08 11:33:59;;;;;;;2.00;1.90;;;;;;;;;;5032945;28;20106;-65
2022/07/08 11:36:25;;;;;;;1.85;1.75;;;;;;;;;;5032935;28;20067;-71
2022/07/08 11:38:50;;;;;;;1.90;1.80;;;;;;;;;;5032933;28;20025;-65
2022/07/08 11:41:19;;;;;;;1.90;1.70;;;;;;;;;;5032314;28;20022;-72
2022/07/08 11:43:45;;;;;;;2.97;2.30;;;;;;;;;;5033122;28;20022;-72
2022/07/08 11:46:28;;;;;;;2.75;2.55;;;;;;;;;;5033077;28;20487;-72
2022/07/08 11:48:54;;;;;;;4.15;2.60;;;;;;;;;;5033381;28;20041;-72
2022/07/08 11:51:19;;;;;;;2.28;2.17;;;;;;;;;;5015545;28;20022;-72
2022/07/08 11:53:45;;;;;;;3.70;2.70;;;;;;;;;;5033114;28;20037;-72
2022/07/08 11:56:11;;;;;;;2.22;2.10;;;;;;;;;;5033017;28;20052;-73
2022/07/08 11:58:36;;;;;;;2.72;2.53;;;;;;;;;;5033044;28;20440;-73
2022/07/08 12:01:02;;;;;;;2.60;2.50;;;;;;;;;;5032827;28;20068;-73
2022/07/08 12:03:28;;;;;;;3.75;2.95;;;;;;;;;;5032595;28;20025;-72
2022/07/08 12:05:53;;;;;;;2.97;2.83;;;;;;;;;;5032725;28;20022;-72
2022/07/08 12:08:19;;;;;;;2.97;2.88;;;;;;;;;;5015479;28;20021;-72
2022/07/08 12:10:45;;;;;;;2.88;2.67;;;;;;;;;;5032780;28;20108;-72
2022/07/08 12:13:10;;;;;;;3.17;2.97;;;;;;;;;;5031948;28;20021;-72
2022/07/08 12:15:36;;;;;;;3.30;2.90;;;;;;;;;;5014581;28;20029;-73
2022/07/08 12:18:02;;;;;;;3.72;2.38;;;;;;;;;;5032332;28;20107;-72
2022/07/08 12:20:35;;;;;;;2.72;2.63;;;;;;;;;;5032218;28;20033;-72
2022/07/08 12:23:01;;;;;;;2.75;2.55;;;;;;;;;;5035946;28;20029;-72
2022/07/08 12:25:26;;;;;;;2.95;2.75;;;;;;;;;;5036599;28;20413;-72
2022/07/08 12:27:56;;;;;;;2.80;2.60;;;;;;;;;;5036388;28;20052;-72
2022/07/08 12:30:40;;;;;;;3.30;3.10;;;;;;;;;;5036592;28;20518;-73
2022/07/08 12:33:05;;;;;;;3.92;2.75;;;;;;;;;;5018744;28;20029;-72
2022/07/08 12:35:33;;;;;;;2.35;2.25;;;;;;;;;;5036292;28;20014;-72
2022/07/08 12:38:05;;;;;;;2.10;2.00;;;;;;;;;;5035846;28;20064;-72
2022/07/08 12:40:43;;;;;;;1.83;1.73;;;;;;;;;;5036322;28;20121;-72
2022/07/08 12:43:09;;;;;;;2.05;1.95;;;;;;;;;;5036341;28;20121;-73
2022/07/08 12:45:35;;;;;;;1.75;1.65;;;;;;;;;;5036354;28;20022;-72
2022/07/08 12:48:02;;;;;;;1.63;1.52;;;;;;;;;;5036201;28;20116;-72
2022/07/08 12:50:27;;;;;;;1.45;1.40;;;;;;;;;;5036326;28;20014;-72
2022/07/08 12:52:54;;;;;;;1.80;1.65;;;;;;;;;;5036058;28;20034;-72
2022/07/08 12:55:20;;;;;;;2.35;1.30;;;;;;;;;;5035215;28;20041;-72
2022/07/08 12:57:46;;;;;;;1.60;1.50;;;;;;;;;;5034905;28;20029;-72
2022/07/08 13:00:11;;;;;;;1.40;1.40;;;;;;;;;;5035158;28;20036;-72
2022/07/08 13:02:38;;;;;;;1.73;1.45;;;;;;;;;;5035236;28;20127;-72
2022/07/08 13:05:04;;;;;;;1.58;1.48;;;;;;;;;;5017596;28;20438;-72
2022/07/08 13:07:29;;;;;;;1.70;1.60;;;;;;;;;;5035105;28;20104;-72
2022/07/08 13:09:55;;;;;;;2.97;1.80;;;;;;;;;;5035404;28;20021;-72
2022/07/08 13:12:21;;;;;;;2.67;1.77;;;;;;;;;;5035051;28;20076;-72
2022/07/08 13:14:46;;;;;;;2.13;1.70;;;;;;;;;;5035039;28;20061;-72
2022/07/08 13:17:11;;;;;;;1.75;1.65;;;;;;;;;;5034925;28;20533;-72
2022/07/08 13:19:37;;;;;;;2.08;1.98;;;;;;;;;;5034853;28;20029;-72
2022/07/08 13:22:03;;;;;;;2.50;1.67;;;;;;;;;;5034857;28;20034;-72
2022/07/08 13:24:28;;;;;;;2.15;2.03;;;;;;;;;;5034820;28;20096;-71
2022/07/08 13:26:53;;;;;;;1.80;1.70;;;;;;;;;;5034820;28;20401;-71
2022/07/08 13:29:19;;;;;;;2.22;1.85;;;;;;;;;;5034653;28;20460;-71
2022/07/08 13:31:45;;;;;;;2.45;2.00;;;;;;;;;;5034603;28;20043;-71
2022/07/08 13:34:10;;;;;;;1.98;1.88;;;;;;;;;;5034685;28;20021;-71
2022/07/08 13:36:36;;;;;;;2.00;1.80;;;;;;;;;;5034601;28;20033;-71
2022/07/08 13:39:01;;;;;;;3.25;2.10;;;;;;;;;;5016799;28;20341;-71
2022/07/08 13:41:31;;;;;;;1.95;1.85;;;;;;;;;;5034919;28;20026;-71
2022/07/08 13:43:57;;;;;;;3.13;2.08;;;;;;;;;;5034385;28;20048;-71
2022/07/08 13:46:22;;;;;;;2.03;1.92;;;;;;;;;;5033441;28;20467;-72
2022/07/08 13:48:48;;;;;;;3.15;2.25;;;;;;;;;;5034988;28;20100;-71
2022/07/08 13:51:13;;;;;;;3.55;2.35;;;;;;;;;;5035123;28;20087;-71
2022/07/08 13:53:39;;;;;;;2.05;1.95;;;;;;;;;;5034538;28;20108;-71
2022/07/08 13:56:04;;;;;;;2.03;1.92;;;;;;;;;;5034694;28;20069;-70
2022/07/08 13:58:30;;;;;;;2.63;1.90;;;;;;;;;;5034973;28;20422;-70
2022/07/08 14:00:55;;;;;;;2.92;2.00;;;;;;;;;;5034929;28;20022;-71
2022/07/08 14:03:20;;;;;;;2.30;2.10;;;;;;;;;;5017086;28;20021;-71
2022/07/08 14:05:46;;;;;;;3.70;2.97;;;;;;;;;;5034417;28;20018;-71
2022/07/08 14:08:11;;;;;;;1.50;1.50;;;;;;;;;;5034018;28;20503;-71
2022/07/08 14:10:36;;;;;;;1.48;1.38;;;;;;;;;;5016202;28;20112;-71
2022/07/08 14:13:02;;;;;;;2.22;0.95;;;;;;;;;;5033958;28;20358;-71
2022/07/08 14:15:27;;;;;;;1.63;1.00;;;;;;;;;;5016534;28;20485;-71
2022/07/08 14:17:53;;;;;;;2.95;1.50;;;;;;;;;;5033808;28;20432;-71
2022/07/08 14:20:18;;;;;;;1.77;1.30;;;;;;;;;;5033653;28;20107;-72
2022/07/08 14:22:43;;;;;;;2.90;1.40;;;;;;;;;;5033699;28;20092;-72
2022/07/08 14:25:09;;;;;;;2.17;1.10;;;;;;;;;;5033614;28;20427;-71
2022/07/08 14:27:34;;;;;;;3.33;2.08;;;;;;;;;;5033609;28;20023;-71
2022/07/08 14:30:00;;;;;;;2.92;2.67;;;;;;;;;;5015212;28;20087;-71
2022/07/08 14:32:26;;;;;;;4.65;4.10;;;;;;;;;;5031853;28;20529;-71
2022/07/08 14:34:51;;;;;;;3.17;2.17;;;;;;;;;;5032364;28;20044;-71
2022/07/08 14:37:17;;;;;;;2.55;1.20;;;;;;;;;;5032456;28;20072;-71
2022/07/08 14:39:43;;;;;;;2.15;1.02;;;;;;;;;;5032785;28;20180;-72
2022/07/08 14:42:08;;;;;;;4.82;1.15;;;;;;;;;;5033053;28;20100;-71